Terminal Aerodrome Forecast
Issued by NWS

Home | Current Version | Previous Version | Text Only | Print | Product List | Glossary On
Versions: 1 2 3 4 5 6 7 8 9 10 11 12 13 14 15 16 17 18 19 20 21 22 23 24 25 26 27 28 29 30 31
857
FTUS42 KRAH 291738
TAFRWI
TAF
KRWI 291738Z 2918/3018 09008KT P6SM VCSH SCT009 BKN035
      TEMPO 2918/2922 VRB06KT 2SM SHRA BKN007
     FM292200 09008KT P6SM VCSH BKN012 OVC025
      TEMPO 2922/3002 VRB06KT 2SM SHRA OVC010=

USA.gov is the U.S. government's official web portal to all federal, state and local government web resources and services.